Time;durP1;ratioP1;P1;durP2;ratioP2;P2;SDS_P1;SDS_P2;PMS_P1;PMS_P2;Temp;Humidity;BMP_temperature;BMP_pressure;BME280_temperature;BME280_humidity;BME280_pressure;Samples;Min_cycle;Max_cycle;Signal;HPM_P1;HPM_P2
2021/11/19 00:03:51;;;;;;;13.58;7.75;;;;;;;9.28;100.00;100088.41;714443;1200;114259;-73
2021/11/19 00:18:57;;;;;;;9.47;7.13;;;;;;;9.57;100.00;100076.39;713949;1202;115305;-73
2021/11/19 00:34:00;;;;;;;11.80;7.95;;;;;;;9.53;100.00;100098.54;713635;1202;114497;-74
2021/11/19 00:49:03;;;;;;;9.50;6.95;;;;;;;9.62;100.00;100095.13;713702;1177;114237;-73
2021/11/19 01:04:08;;;;;;;9.03;6.83;;;;;;;9.64;100.00;100093.20;713709;1202;113581;-73
2021/11/19 01:19:18;;;;;;;8.48;6.85;;;;;;;9.66;100.00;100096.53;713900;1177;113782;-73
2021/11/19 01:34:20;;;;;;;8.03;6.13;;;;;;;9.66;100.00;100078.20;713713;1188;114092;-73
2021/11/19 01:49:25;;;;;;;7.95;5.33;;;;;;;9.87;100.00;100067.63;713651;1188;113829;-73
2021/11/19 02:04:35;;;;;;;7.45;4.98;;;;;;;10.03;100.00;100077.56;713779;1193;114636;-73
2021/11/19 02:19:48;;;;;;;7.10;5.08;;;;;;;10.06;100.00;100066.80;713764;1195;113820;-74
2021/11/19 02:34:51;;;;;;;10.63;5.75;;;;;;;10.23;100.00;100067.91;713626;1200;114565;-71
2021/11/19 02:49:54;;;;;;;5.50;4.40;;;;;;;10.23;100.00;100098.55;713622;1202;115234;-72
2021/11/19 03:05:01;;;;;;;6.48;4.90;;;;;;;10.34;100.00;100098.40;713782;1202;114446;-72
2021/11/19 03:20:06;;;;;;;6.00;4.20;;;;;;;10.39;100.00;100103.27;713742;1200;115008;-72
2021/11/19 03:35:14;;;;;;;4.83;4.08;;;;;;;10.53;100.00;100089.74;713767;1202;114432;-72
2021/11/19 03:50:22;;;;;;;6.98;5.00;;;;;;;10.69;100.00;100107.53;713687;1200;114608;-73
2021/11/19 04:05:26;;;;;;;4.80;4.18;;;;;;;10.67;100.00;100079.78;713868;1202;115273;-73
2021/11/19 04:20:30;;;;;;;4.38;3.08;;;;;;;10.75;100.00;100109.57;713781;1202;114899;-72
2021/11/19 04:35:32;;;;;;;7.00;3.97;;;;;;;10.91;100.00;100122.11;713771;1202;113917;-72
2021/11/19 04:50:37;;;;;;;10.87;7.50;;;;;;;11.00;100.00;100109.94;713913;1200;114495;-71
2021/11/19 05:05:41;;;;;;;4.68;3.60;;;;;;;10.97;100.00;100094.48;713875;1200;114012;-72
2021/11/19 05:20:44;;;;;;;6.70;4.63;;;;;;;10.98;100.00;100090.91;713979;1178;113944;-73
2021/11/19 05:35:47;;;;;;;12.25;8.65;;;;;;;11.06;100.00;100093.63;714057;1200;113896;-73
2021/11/19 05:50:49;;;;;;;8.98;6.58;;;;;;;11.26;100.00;100096.20;714505;1200;114413;-74
2021/11/19 06:05:51;;;;;;;42.53;28.75;;;;;;;11.28;100.00;100118.71;714348;1199;114795;-73
2021/11/19 06:20:58;;;;;;;51.15;30.60;;;;;;;11.40;100.00;100113.27;713896;1200;114143;-73
2021/11/19 06:36:01;;;;;;;26.68;16.40;;;;;;;11.49;100.00;100110.61;714991;1200;116346;-73
2021/11/19 06:51:04;;;;;;;61.45;20.50;;;;;;;11.38;100.00;100141.48;713904;1201;114794;-73
2021/11/19 07:06:07;;;;;;;69.28;28.10;;;;;;;11.40;100.00;100157.91;714171;1205;114311;-73
2021/11/19 07:21:09;;;;;;;70.37;24.70;;;;;;;11.55;100.00;100163.55;714178;1200;115865;-73
2021/11/19 07:36:14;;;;;;;24.13;11.25;;;;;;;11.48;100.00;100150.13;714272;1199;114336;-73
2021/11/19 07:51:20;;;;;;;26.35;11.38;;;;;;;11.47;100.00;100151.13;714152;1203;115208;-73
2021/11/19 08:06:26;;;;;;;14.70;9.20;;;;;;;11.68;100.00;100163.19;714179;1200;114325;-75
2021/11/19 08:21:30;;;;;;;29.43;14.73;;;;;;;11.75;100.00;100159.84;714713;1200;114224;-74
2021/11/19 08:36:33;;;;;;;12.83;8.07;;;;;;;11.80;100.00;100162.05;714638;1202;115660;-72
2021/11/19 08:51:37;;;;;;;59.58;24.23;;;;;;;11.93;100.00;100165.16;714316;1184;114304;-73
2021/11/19 09:06:40;;;;;;;16.53;9.47;;;;;;;11.97;100.00;100152.58;714507;1202;114794;-72
2021/11/19 09:21:58;;;;;;;11.13;7.33;;;;;;;12.00;100.00;100149.64;714754;1203;115224;-72
2021/11/19 09:37:03;;;;;;;20.18;13.13;;;;;;;12.13;100.00;100155.37;714504;1200;114967;-78
2021/11/19 09:52:43;;;;;;;9.77;7.40;;;;;;;12.39;100.00;100141.50;714326;1177;115200;-74
2021/11/19 10:08:02;;;;;;;18.43;11.18;;;;;;;12.48;100.00;100135.33;714720;1177;115437;-73
2021/11/19 10:23:10;;;;;;;17.00;10.75;;;;;;;12.49;100.00;100126.44;714280;1200;114380;-70
2021/11/19 10:38:16;;;;;;;;;;;;;;;12.77;100.00;100097.36;714555;1207;114989;-70
2021/11/19 10:53:36;;;;;;;15.30;10.00;;;;;;;12.89;100.00;100113.73;714492;1200;101376;-70
2021/11/19 11:08:43;;;;;;;8.80;4.90;;;;;;;13.02;100.00;100083.55;714347;1202;115459;-70
2021/11/19 11:23:47;;;;;;;7.37;5.13;;;;;;;13.22;100.00;100084.14;714353;1199;114605;-72
2021/11/19 11:38:50;;;;;;;20.70;11.30;;;;;;;13.12;100.00;100108.78;714544;1176;114420;-75
2021/11/19 11:54:11;;;;;;;6.35;4.23;;;;;;;13.29;100.00;100093.08;714795;1200;114298;-75
2021/11/19 12:09:28;;;;;;;6.40;4.50;;;;;;;13.31;100.00;100078.73;714417;1174;113951;-75
2021/11/19 12:24:48;;;;;;;13.65;7.58;;;;;;;13.43;100.00;100073.23;714922;1200;114043;-73
2021/11/19 12:39:50;;;;;;;22.37;12.90;;;;;;;13.44;100.00;100088.88;714820;1177;114162;-72
2021/11/19 12:55:20;;;;;;;10.25;6.80;;;;;;;13.36;100.00;100065.14;713850;1202;114324;-72
2021/11/19 13:10:22;;;;;;;9.33;7.10;;;;;;;13.39;100.00;100075.34;714089;1200;115096;-73
2021/11/19 13:25:30;;;;;;;10.75;5.75;;;;;;;13.48;100.00;100074.39;714025;1200;113999;-73
2021/11/19 13:40:35;;;;;;;14.50;5.73;;;;;;;13.55;100.00;100073.77;714216;1192;115107;-72
2021/11/19 13:55:43;;;;;;;32.85;16.25;;;;;;;13.58;100.00;100063.73;713921;1178;114158;-72
2021/11/19 14:11:01;;;;;;;18.90;9.75;;;;;;;13.64;100.00;100056.99;714008;1200;114323;-72
2021/11/19 14:26:09;;;;;;;32.03;13.93;;;;;;;13.66;100.00;100049.77;714682;1192;114543;-72
2021/11/19 14:41:45;;;;;;;17.15;10.53;;;;;;;13.75;100.00;100043.52;714786;1200;115683;-73
2021/11/19 14:56:50;;;;;;;17.35;9.78;;;;;;;13.83;100.00;100055.05;713768;1202;115902;-73
2021/11/19 15:11:58;;;;;;;16.30;9.13;;;;;;;13.91;100.00;100042.72;713826;1202;115723;-73
2021/11/19 15:27:41;;;;;;;15.25;7.00;;;;;;;13.93;100.00;100039.91;714369;1200;115589;-76
2021/11/19 15:42:46;;;;;;;9.97;5.83;;;;;;;14.01;100.00;100021.45;715571;1200;115384;-73
2021/11/19 15:58:12;;;;;;;21.53;10.60;;;;;;;13.98;100.00;100011.25;714364;1199;113994;-74
2021/11/19 16:13:41;;;;;;;19.40;9.63;;;;;;;14.07;100.00;99994.44;714160;1203;114850;-74
2021/11/19 16:28:45;;;;;;;45.85;23.40;;;;;;;13.99;100.00;99978.63;714168;1200;113834;-74
2021/11/19 16:43:49;;;;;;;21.90;9.78;;;;;;;13.97;100.00;99978.76;713855;1179;115256;-74
2021/11/19 16:58:53;;;;;;;17.55;9.68;;;;;;;13.97;100.00;99968.21;713925;1203;113865;-75
2021/11/19 17:13:57;;;;;;;16.33;6.78;;;;;;;13.79;100.00;99955.20;714117;1202;115093;-76
2021/11/19 17:29:02;;;;;;;16.70;7.53;;;;;;;13.81;100.00;99953.22;714003;1178;113941;-75
2021/11/19 17:44:07;;;;;;;27.73;11.80;;;;;;;13.88;100.00;99952.56;714062;1178;113856;-75
2021/11/19 17:59:13;;;;;;;39.23;14.95;;;;;;;13.79;100.00;99949.94;713965;1177;114369;-75
2021/11/19 18:14:20;;;;;;;27.83;12.53;;;;;;;13.74;100.00;99949.60;714111;1174;113928;-74
2021/11/19 18:29:25;;;;;;;34.10;13.00;;;;;;;13.76;100.00;99950.25;714112;1193;114404;-74
2021/11/19 18:44:27;;;;;;;46.67;19.20;;;;;;;13.71;100.00;99926.22;713992;1176;114518;-71
2021/11/19 18:59:31;;;;;;;27.30;10.88;;;;;;;13.66;100.00;99917.98;714117;1199;114995;-73
2021/11/19 19:14:35;;;;;;;31.43;11.88;;;;;;;13.73;100.00;99902.33;714771;1177;114001;-74
2021/11/19 19:29:41;;;;;;;25.03;11.27;;;;;;;13.59;100.00;99891.45;714130;1189;113949;-76
2021/11/19 19:44:44;;;;;;;16.55;7.38;;;;;;;13.58;100.00;99923.22;715155;1178;114191;-73
2021/11/19 19:59:47;;;;;;;17.80;6.20;;;;;;;13.57;100.00;99919.77;714174;1200;114683;-73
2021/11/19 20:14:51;;;;;;;10.00;4.70;;;;;;;13.27;100.00;99934.35;714295;1205;114353;-74
2021/11/19 20:30:10;;;;;;;13.00;3.55;;;;;;;13.12;100.00;99919.17;713939;1202;114145;-73
2021/11/19 20:45:27;;;;;;;10.78;4.60;;;;;;;13.09;100.00;99930.03;714248;1177;114870;-74
2021/11/19 21:00:32;;;;;;;10.53;4.50;;;;;;;12.87;100.00;99963.03;714118;1177;114884;-74
2021/11/19 21:15:41;;;;;;;43.43;16.30;;;;;;;12.84;100.00;99959.88;714923;1176;115708;-72
2021/11/19 21:30:47;;;;;;;9.33;3.17;;;;;;;12.94;100.00;99950.86;714536;1200;114791;-70
2021/11/19 21:45:53;;;;;;;8.90;2.73;;;;;;;12.65;100.00;99909.13;714653;1182;113685;-72
2021/11/19 22:00:57;;;;;;;10.55;2.65;;;;;;;12.70;100.00;99938.44;714414;1178;114662;-72
2021/11/19 22:16:03;;;;;;;8.25;3.80;;;;;;;12.55;100.00;99927.69;714523;1176;114203;-74
2021/11/19 22:31:09;;;;;;;11.48;3.00;;;;;;;12.59;100.00;99950.06;714433;1174;114237;-73
2021/11/19 22:46:12;;;;;;;10.45;3.38;;;;;;;12.52;100.00;99956.11;714913;1177;114034;-74
2021/11/19 23:01:31;;;;;;;9.93;2.48;;;;;;;12.62;100.00;99988.40;714665;1177;114102;-73
2021/11/19 23:16:44;;;;;;;6.25;2.95;;;;;;;12.73;100.00;99980.22;714013;1200;115885;-74
2021/11/19 23:32:01;;;;;;;4.90;2.45;;;;;;;12.70;100.00;99979.73;713957;1178;113871;-73
2021/11/19 23:47:16;;;;;;;6.27;2.50;;;;;;;12.64;100.00;100002.21;714147;1193;114418;-75
